createdAt,value
2016-09-06T00:00:03.011Z,1002.2
2016-09-06T00:00:23.599Z,1002.2
2016-09-06T00:00:44.189Z,1002.2
2016-09-06T00:01:04.770Z,1002.2
2016-09-06T00:01:25.321Z,1002.2
2016-09-06T00:01:45.868Z,1002.2
2016-09-06T00:02:06.425Z,1002.2
2016-09-06T00:02:26.991Z,1002.2
2016-09-06T00:02:47.550Z,1002.2
2016-09-06T00:03:08.114Z,1002.3
2016-09-06T00:03:28.634Z,1002.2
2016-09-06T00:03:49.198Z,1002.3
2016-09-06T00:04:09.800Z,1002.3
2016-09-06T00:04:30.376Z,1002.3
2016-09-06T00:04:50.960Z,1002.2
2016-09-06T00:05:11.516Z,1002.3
2016-09-06T00:05:32.091Z,1002.3
2016-09-06T00:05:52.638Z,1002.2
2016-09-06T00:06:13.225Z,1002.3
2016-09-06T00:06:33.804Z,1002.3
2016-09-06T00:06:54.371Z,1002.3
2016-09-06T00:07:14.975Z,1002.3
2016-09-06T00:07:35.546Z,1002.3
2016-09-06T00:07:56.113Z,1002.3
2016-09-06T00:08:16.683Z,1002.3
2016-09-06T00:08:37.283Z,1002.3
2016-09-06T00:08:57.845Z,1002.3
2016-09-06T00:09:18.401Z,1002.3
2016-09-06T00:09:38.963Z,1002.3
2016-09-06T00:09:59.544Z,1002.3
2016-09-06T00:10:20.110Z,1002.3
2016-09-06T00:10:40.688Z,1002.3
2016-09-06T00:11:01.247Z,1002.3
2016-09-06T00:11:21.815Z,1002.3
2016-09-06T00:11:42.376Z,1002.3
2016-09-06T00:12:02.996Z,1002.3
2016-09-06T00:12:23.562Z,1002.3
2016-09-06T00:12:44.108Z,1002.3
2016-09-06T00:13:04.677Z,1002.3
2016-09-06T00:13:25.247Z,1002.3
2016-09-06T00:13:45.818Z,1002.3
2016-09-06T00:14:06.394Z,1002.3
2016-09-06T00:14:26.969Z,1002.4
2016-09-06T00:14:47.529Z,1002.4
2016-09-06T00:15:08.085Z,1002.4
2016-09-06T00:15:28.658Z,1002.4
2016-09-06T00:15:49.247Z,1002.4
2016-09-06T00:16:09.831Z,1002.3
2016-09-06T00:16:30.416Z,1002.4
2016-09-06T00:16:50.971Z,1002.4
2016-09-06T00:17:11.556Z,1002.4
2016-09-06T00:17:32.111Z,1002.4
2016-09-06T00:17:52.651Z,1002.4
2016-09-06T00:18:13.223Z,1002.4
2016-09-06T00:18:33.771Z,1002.4
2016-09-06T00:18:54.356Z,1002.4
2016-09-06T00:19:14.939Z,1002.4
2016-09-06T00:19:35.506Z,1002.4
2016-09-06T00:19:56.070Z,1002.4
2016-09-06T00:20:16.659Z,1002.4
2016-09-06T00:20:37.236Z,1002.4
2016-09-06T00:20:57.800Z,1002.4
2016-09-06T00:21:18.367Z,1002.5
2016-09-06T00:21:38.904Z,1002.4
2016-09-06T00:21:59.474Z,1002.5
2016-09-06T00:22:20.068Z,1002.4
2016-09-06T00:22:40.645Z,1002.4
2016-09-06T00:23:01.182Z,1002.4
2016-09-06T00:23:21.735Z,1002.4
2016-09-06T00:23:42.317Z,1002.4
2016-09-06T00:24:02.882Z,1002.4
2016-09-06T00:24:23.440Z,1002.3
2016-09-06T00:24:43.999Z,1002.4
2016-09-06T00:25:04.598Z,1002.4
2016-09-06T00:25:25.169Z,1002.4
2016-09-06T00:25:45.719Z,1002.4
2016-09-06T00:26:06.297Z,1002.4
2016-09-06T00:26:26.880Z,1002.4
2016-09-06T00:26:47.437Z,1002.4
2016-09-06T00:27:07.995Z,1002.4
2016-09-06T00:27:28.559Z,1002.4
2016-09-06T00:27:49.123Z,1002.4
2016-09-06T00:28:09.699Z,1002.4
2016-09-06T00:28:30.267Z,1002.4
2016-09-06T00:28:50.848Z,1002.4
2016-09-06T00:29:11.440Z,1002.4
2016-09-06T00:29:32.017Z,1002.3
2016-09-06T00:29:52.573Z,1002.4
2016-09-06T00:30:13.124Z,1002.4
2016-09-06T00:30:33.685Z,1002.4
2016-09-06T00:30:54.239Z,1002.4
2016-09-06T00:31:14.815Z,1002.4
2016-09-06T00:31:35.391Z,1002.4
2016-09-06T00:31:55.963Z,1002.3
2016-09-06T00:32:16.499Z,1002.3
2016-09-06T00:32:37.038Z,1002.3
2016-09-06T00:32:57.587Z,1002.3
2016-09-06T00:33:18.184Z,1002.3
2016-09-06T00:33:38.739Z,1002.4
2016-09-06T00:33:59.309Z,1002.3
2016-09-06T00:34:19.893Z,1002.3
2016-09-06T00:34:40.456Z,1002.3
2016-09-06T00:35:01.022Z,1002.4
2016-09-06T00:35:21.583Z,1002.4
2016-09-06T00:35:42.161Z,1002.4
2016-09-06T00:36:02.717Z,1002.4
2016-09-06T00:36:23.293Z,1002.4
2016-09-06T00:36:43.862Z,1002.4
2016-09-06T00:37:04.419Z,1002.4
2016-09-06T00:37:24.998Z,1002.4
2016-09-06T00:37:45.559Z,1002.4
2016-09-06T00:38:06.140Z,1002.4
2016-09-06T00:38:26.678Z,1002.4
2016-09-06T00:38:47.269Z,1002.5
2016-09-06T00:39:07.812Z,1002.4
2016-09-06T00:39:28.395Z,1002.4
2016-09-06T00:39:48.958Z,1002.4
2016-09-06T00:40:09.512Z,1002.4
2016-09-06T00:40:30.051Z,1002.4
2016-09-06T00:40:50.597Z,1002.4
2016-09-06T00:41:11.161Z,1002.4
2016-09-06T00:41:31.724Z,1002.4
2016-09-06T00:41:52.293Z,1002.4
2016-09-06T00:42:12.880Z,1002.4
2016-09-06T00:42:33.417Z,1002.4
2016-09-06T00:42:54.010Z,1002.4
2016-09-06T00:43:14.572Z,1002.5
2016-09-06T00:43:35.145Z,1002.4
2016-09-06T00:43:55.716Z,1002.5
2016-09-06T00:44:16.293Z,1002.4
2016-09-06T00:44:36.861Z,1002.4
2016-09-06T00:44:57.414Z,1002.5
2016-09-06T00:45:17.984Z,1002.5
2016-09-06T00:45:38.555Z,1002.4
2016-09-06T00:45:59.125Z,1002.4
2016-09-06T00:46:19.687Z,1002.4
2016-09-06T00:46:40.237Z,1002.4
2016-09-06T00:47:00.814Z,1002.4
2016-09-06T00:47:21.392Z,1002.4
2016-09-06T00:47:41.983Z,1002.4
2016-09-06T00:48:02.552Z,1002.5
2016-09-06T00:48:23.117Z,1002.5
2016-09-06T00:48:43.696Z,1002.5
2016-09-06T00:49:04.254Z,1002.5
2016-09-06T00:49:24.816Z,1002.5
2016-09-06T00:49:45.387Z,1002.5
2016-09-06T00:50:05.956Z,1002.5
2016-09-06T00:50:26.487Z,1002.5
2016-09-06T00:50:47.043Z,1002.5
2016-09-06T00:51:07.629Z,1002.5
2016-09-06T00:51:28.181Z,1002.5
2016-09-06T00:51:48.766Z,1002.5
2016-09-06T00:52:09.359Z,1002.5
2016-09-06T00:52:29.912Z,1002.5
2016-09-06T00:52:50.504Z,1002.6
2016-09-06T00:53:11.069Z,1002.5
2016-09-06T00:53:31.628Z,1002.6
2016-09-06T00:53:52.194Z,1002.6
2016-09-06T00:54:12.788Z,1002.5
2016-09-06T00:54:33.318Z,1002.6
2016-09-06T00:54:53.905Z,1002.6
2016-09-06T00:55:14.456Z,1002.5
2016-09-06T00:55:35.024Z,1002.5
2016-09-06T00:55:55.575Z,1002.6
2016-09-06T00:56:16.161Z,1002.5
2016-09-06T00:56:36.724Z,1002.5
2016-09-06T00:56:57.277Z,1002.5
2016-09-06T00:57:17.860Z,1002.6
2016-09-06T00:57:38.443Z,1002.5
2016-09-06T00:57:59.016Z,1002.5
2016-09-06T00:58:19.590Z,1002.5
2016-09-06T00:58:40.154Z,1002.6
2016-09-06T00:59:00.750Z,1002.5
2016-09-06T00:59:21.307Z,1002.6
2016-09-06T00:59:41.879Z,1002.6
2016-09-06T01:00:02.463Z,1002.6
2016-09-06T01:00:23.045Z,1002.6
2016-09-06T01:00:43.596Z,1002.6
2016-09-06T01:01:04.203Z,1002.6
2016-09-06T01:01:24.757Z,1002.6
2016-09-06T01:01:45.328Z,1002.6
2016-09-06T01:02:05.900Z,1002.6
2016-09-06T01:02:26.484Z,1002.6
2016-09-06T01:02:47.046Z,1002.6
2016-09-06T01:03:07.616Z,1002.6
2016-09-06T01:03:28.184Z,1002.6
2016-09-06T01:03:48.730Z,1002.6
2016-09-06T01:04:09.333Z,1002.6
2016-09-06T01:04:29.893Z,1002.6
2016-09-06T01:04:50.472Z,1002.6
2016-09-06T01:05:11.050Z,1002.6
2016-09-06T01:05:31.649Z,1002.6
2016-09-06T01:05:52.217Z,1002.6
2016-09-06T01:06:12.756Z,1002.6
2016-09-06T01:06:33.341Z,1002.6
2016-09-06T01:06:53.923Z,1002.6
2016-09-06T01:07:14.500Z,1002.6
2016-09-06T01:07:35.055Z,1002.6
2016-09-06T01:07:55.626Z,1002.6
2016-09-06T01:08:16.208Z,1002.6
2016-09-06T01:08:36.780Z,1002.6
2016-09-06T01:08:57.349Z,1002.6
2016-09-06T01:09:17.927Z,1002.6
2016-09-06T01:09:38.475Z,1002.6
2016-09-06T01:09:59.089Z,1002.7
2016-09-06T01:10:19.641Z,1002.7
2016-09-06T01:10:40.209Z,1002.6
2016-09-06T01:11:00.769Z,1002.7
2016-09-06T01:11:21.330Z,1002.7
2016-09-06T01:11:41.912Z,1002.7
2016-09-06T01:12:02.483Z,1002.7
2016-09-06T01:12:23.063Z,1002.7
2016-09-06T01:12:43.620Z,1002.7
2016-09-06T01:13:04.162Z,1002.7
2016-09-06T01:13:24.732Z,1002.7
2016-09-06T01:13:45.305Z,1002.7
2016-09-06T01:14:05.873Z,1002.7
2016-09-06T01:14:26.447Z,1002.7
2016-09-06T01:14:47.002Z,1002.7
2016-09-06T01:15:07.581Z,1002.7
2016-09-06T01:15:28.146Z,1002.7
2016-09-06T01:15:48.731Z,1002.7
2016-09-06T01:16:09.301Z,1002.8
2016-09-06T01:16:29.868Z,1002.7
2016-09-06T01:16:50.903Z,1002.7
2016-09-06T01:17:11.477Z,1002.8
2016-09-06T01:17:32.047Z,1002.7
2016-09-06T01:17:52.627Z,1002.7
2016-09-06T01:18:13.182Z,1002.7
2016-09-06T01:18:33.729Z,1002.8
2016-09-06T01:18:54.284Z,1002.8
2016-09-06T01:19:14.871Z,1002.7
2016-09-06T01:19:35.430Z,1002.7
2016-09-06T01:19:56.015Z,1002.8
2016-09-06T01:20:16.597Z,1002.8
2016-09-06T01:20:37.153Z,1002.8
2016-09-06T01:20:57.753Z,1002.8
2016-09-06T01:21:18.337Z,1002.8
2016-09-06T01:21:38.908Z,1002.8
2016-09-06T01:21:59.504Z,1002.8
2016-09-06T01:22:20.090Z,1002.8
2016-09-06T01:22:40.640Z,1002.8
2016-09-06T01:23:01.204Z,1002.8
2016-09-06T01:23:21.760Z,1002.8
2016-09-06T01:23:42.328Z,1002.7
2016-09-06T01:24:02.901Z,1002.8
2016-09-06T01:24:23.473Z,1002.8
2016-09-06T01:24:44.036Z,1002.8
2016-09-06T01:25:04.702Z,1002.8
2016-09-06T01:25:25.278Z,1002.8
2016-09-06T01:25:45.844Z,1002.8
2016-09-06T01:26:06.433Z,1002.7
2016-09-06T01:26:27.008Z,1002.8
2016-09-06T01:26:47.559Z,1002.8
2016-09-06T01:27:08.136Z,1002.7
2016-09-06T01:27:28.712Z,1002.8
2016-09-06T01:27:49.285Z,1002.8
2016-09-06T01:28:09.895Z,1002.8
2016-09-06T01:28:30.472Z,1002.8
2016-09-06T01:28:51.076Z,1002.7
2016-09-06T01:29:11.637Z,1002.7
2016-09-06T01:29:32.204Z,1002.8
2016-09-06T01:29:52.781Z,1002.7
2016-09-06T01:30:13.376Z,1002.8
2016-09-06T01:30:33.983Z,1002.8
2016-09-06T01:30:54.541Z,1002.8
2016-09-06T01:31:15.117Z,1002.8
2016-09-06T01:31:35.691Z,1002.8
2016-09-06T01:31:56.266Z,1002.8
2016-09-06T01:32:16.866Z,1002.8
2016-09-06T01:32:37.448Z,1002.8
2016-09-06T01:32:58.028Z,1002.9
2016-09-06T01:33:18.611Z,1002.8
2016-09-06T01:33:39.195Z,1002.8
2016-09-06T01:33:59.766Z,1002.8
2016-09-06T01:34:20.337Z,1002.8
2016-09-06T01:34:40.934Z,1002.8
2016-09-06T01:35:01.518Z,1002.8
2016-09-06T01:35:22.081Z,1002.8
2016-09-06T01:35:42.652Z,1002.9
2016-09-06T01:36:03.199Z,1002.8
2016-09-06T01:36:23.761Z,1002.8
2016-09-06T01:36:44.328Z,1002.8
2016-09-06T01:37:04.916Z,1002.8
2016-09-06T01:37:25.487Z,1002.9
2016-09-06T01:37:46.048Z,1002.8
2016-09-06T01:38:06.623Z,1002.9
2016-09-06T01:38:27.213Z,1002.8
2016-09-06T01:38:47.797Z,1002.9
2016-09-06T01:39:08.359Z,1002.9
2016-09-06T01:39:28.895Z,1002.9
2016-09-06T01:39:49.472Z,1002.9
2016-09-06T01:40:10.026Z,1002.9
2016-09-06T01:40:30.590Z,1002.9
2016-09-06T01:40:52.732Z,1002.9
2016-09-06T01:41:13.304Z,1002.8
2016-09-06T01:41:33.843Z,1002.9
2016-09-06T01:41:54.407Z,1002.9
2016-09-06T01:42:14.991Z,1002.9
2016-09-06T01:42:35.545Z,1002.9
2016-09-06T01:42:56.111Z,1002.9
2016-09-06T01:43:16.675Z,1002.9
2016-09-06T01:43:37.217Z,1002.9
2016-09-06T01:43:57.790Z,1002.9
2016-09-06T01:44:18.356Z,1002.9
2016-09-06T01:44:38.895Z,1002.9
2016-09-06T01:44:59.449Z,1002.9
2016-09-06T01:45:20.079Z,1002.9
2016-09-06T01:45:40.633Z,1002.9
2016-09-06T01:46:01.193Z,1002.9
2016-09-06T01:46:21.775Z,1002.9
2016-09-06T01:46:42.354Z,1002.9
2016-09-06T01:47:02.959Z,1002.9
2016-09-06T01:47:23.586Z,1002.9
2016-09-06T01:47:44.155Z,1002.9
2016-09-06T01:48:04.703Z,1003
2016-09-06T01:48:25.263Z,1002.9
2016-09-06T01:48:45.806Z,1002.9
2016-09-06T01:49:06.408Z,1002.9
2016-09-06T01:49:26.983Z,1002.9
2016-09-06T01:49:47.551Z,1002.9
2016-09-06T01:50:08.125Z,1002.9
2016-09-06T01:50:28.700Z,1003
2016-09-06T01:50:49.262Z,1002.9
2016-09-06T01:51:09.815Z,1002.9
2016-09-06T01:51:30.386Z,1003
2016-09-06T01:51:50.939Z,1002.9
2016-09-06T01:52:11.512Z,1003
2016-09-06T01:52:32.111Z,1003
2016-09-06T01:52:52.673Z,1003
2016-09-06T01:53:13.250Z,1002.9
2016-09-06T01:53:33.819Z,1003
2016-09-06T01:53:54.379Z,1003
2016-09-06T01:54:14.936Z,1002.9
2016-09-06T01:54:35.514Z,1002.9
2016-09-06T01:54:56.104Z,1003
2016-09-06T01:55:16.661Z,1002.9
2016-09-06T01:55:37.219Z,1003
2016-09-06T01:55:57.793Z,1003
2016-09-06T01:56:18.357Z,1003
2016-09-06T01:56:38.936Z,1002.9
2016-09-06T01:56:59.532Z,1003
2016-09-06T01:57:20.112Z,1003
2016-09-06T01:57:40.665Z,1003
2016-09-06T01:58:01.244Z,1002.9
2016-09-06T01:58:21.805Z,1003
2016-09-06T01:58:42.376Z,1003
2016-09-06T01:59:02.976Z,1003
2016-09-06T01:59:23.559Z,1003
2016-09-06T01:59:44.141Z,1003
2016-09-06T02:00:04.702Z,1003
2016-09-06T02:00:25.271Z,1003
2016-09-06T02:00:45.855Z,1003
2016-09-06T02:01:06.423Z,1003
2016-09-06T02:01:27.027Z,1003
2016-09-06T02:01:47.597Z,1003
2016-09-06T02:02:08.166Z,1003
2016-09-06T02:02:28.722Z,1003
2016-09-06T02:02:49.314Z,1003
2016-09-06T02:03:09.880Z,1003
2016-09-06T02:03:30.450Z,1003.1
2016-09-06T02:03:51.037Z,1003.1
2016-09-06T02:04:11.593Z,1003.1
2016-09-06T02:04:32.146Z,1003.1
2016-09-06T02:04:52.727Z,1003.1
2016-09-06T02:05:13.303Z,1003.1
2016-09-06T02:05:33.878Z,1003.1
2016-09-06T02:05:54.456Z,1003.1
2016-09-06T02:06:15.020Z,1003.1
2016-09-06T02:06:35.593Z,1003.1
2016-09-06T02:06:56.163Z,1003.1
2016-09-06T02:07:16.728Z,1003.1
2016-09-06T02:07:37.296Z,1003.1
2016-09-06T02:07:57.869Z,1003.1
2016-09-06T02:08:18.408Z,1003.1
2016-09-06T02:08:38.987Z,1003.1
2016-09-06T02:08:59.537Z,1003.1
2016-09-06T02:09:20.099Z,1003.1
2016-09-06T02:09:40.664Z,1003.1
2016-09-06T02:10:01.234Z,1003.1
2016-09-06T02:10:21.812Z,1003.1
2016-09-06T02:10:42.381Z,1003.1
2016-09-06T02:11:02.957Z,1003.1
2016-09-06T02:11:23.530Z,1003.1
2016-09-06T02:11:44.128Z,1003.1
2016-09-06T02:12:04.707Z,1003.1
2016-09-06T02:12:25.295Z,1003.1
2016-09-06T02:12:45.869Z,1003.1
2016-09-06T02:13:06.451Z,1003.2
2016-09-06T02:13:27.031Z,1003.1
2016-09-06T02:13:47.622Z,1003.2
2016-09-06T02:14:08.196Z,1003.1
2016-09-06T02:14:28.771Z,1003.2
2016-09-06T02:14:49.344Z,1003.2
2016-09-06T02:15:09.904Z,1003.2
2016-09-06T02:15:30.505Z,1003.2
2016-09-06T02:15:51.061Z,1003.2
2016-09-06T02:16:11.628Z,1003.2
2016-09-06T02:16:32.188Z,1003.2
2016-09-06T02:16:52.767Z,1003.2
2016-09-06T02:17:13.351Z,1003.2
2016-09-06T02:17:33.918Z,1003.2
2016-09-06T02:17:54.478Z,1003.2
2016-09-06T02:18:15.061Z,1003.2
2016-09-06T02:18:35.635Z,1003.2
2016-09-06T02:18:56.207Z,1003.2
2016-09-06T02:19:16.786Z,1003.2
2016-09-06T02:19:37.364Z,1003.2
2016-09-06T02:19:57.951Z,1003.2
2016-09-06T02:20:18.530Z,1003.2
2016-09-06T02:20:39.094Z,1003.2
2016-09-06T02:20:59.661Z,1003.3
2016-09-06T02:21:20.237Z,1003.2
2016-09-06T02:21:40.817Z,1003.3
2016-09-06T02:22:01.376Z,1003.2
2016-09-06T02:22:21.952Z,1003.2
2016-09-06T02:22:42.518Z,1003.3
2016-09-06T02:23:03.139Z,1003.2
2016-09-06T02:23:23.714Z,1003.2
2016-09-06T02:23:44.284Z,1003.2
2016-09-06T02:24:04.854Z,1003.3
2016-09-06T02:24:25.411Z,1003.3
2016-09-06T02:24:45.956Z,1003.3
2016-09-06T02:25:06.530Z,1003.3
2016-09-06T02:25:27.097Z,1003.3
2016-09-06T02:25:47.663Z,1003.3
2016-09-06T02:26:08.243Z,1003.3
2016-09-06T02:26:28.813Z,1003.3
2016-09-06T02:26:49.375Z,1003.2
2016-09-06T02:27:09.932Z,1003.3
2016-09-06T02:27:30.491Z,1003.2
2016-09-06T02:27:51.059Z,1003.3
2016-09-06T02:28:11.661Z,1003.2
2016-09-06T02:28:32.225Z,1003.3
2016-09-06T02:28:52.781Z,1003.3
2016-09-06T02:29:13.351Z,1003.3
2016-09-06T02:29:33.908Z,1003.3
2016-09-06T02:29:54.477Z,1003.3
2016-09-06T02:30:15.047Z,1003.3
2016-09-06T02:30:35.605Z,1003.3
2016-09-06T02:30:56.170Z,1003.3
2016-09-06T02:31:16.758Z,1003.3
2016-09-06T02:31:37.334Z,1003.3
2016-09-06T02:31:57.906Z,1003.3
2016-09-06T02:32:18.484Z,1003.3
2016-09-06T02:32:39.068Z,1003.3
2016-09-06T02:32:59.638Z,1003.3
2016-09-06T02:33:20.229Z,1003.3
2016-09-06T02:33:40.803Z,1003.3
2016-09-06T02:34:01.377Z,1003.3
2016-09-06T02:34:21.955Z,1003.3
2016-09-06T02:34:42.530Z,1003.3
2016-09-06T02:35:03.087Z,1003.3
2016-09-06T02:35:23.641Z,1003.4
2016-09-06T02:35:44.218Z,1003.3
2016-09-06T02:36:04.811Z,1003.3
2016-09-06T02:36:25.401Z,1003.3
2016-09-06T02:36:45.946Z,1003.4
2016-09-06T02:37:06.529Z,1003.3
2016-09-06T02:37:27.100Z,1003.4
2016-09-06T02:37:47.673Z,1003.3
2016-09-06T02:38:08.274Z,1003.4
2016-09-06T02:38:28.846Z,1003.4
2016-09-06T02:38:49.411Z,1003.4
2016-09-06T02:39:09.971Z,1003.4
2016-09-06T02:39:30.547Z,1003.4
2016-09-06T02:39:51.160Z,1003.4
2016-09-06T02:40:11.726Z,1003.4
2016-09-06T02:40:32.303Z,1003.4
2016-09-06T02:40:52.886Z,1003.4
2016-09-06T02:41:13.464Z,1003.4
2016-09-06T02:41:34.029Z,1003.4
2016-09-06T02:41:54.598Z,1003.4
2016-09-06T02:42:15.159Z,1003.4
2016-09-06T02:42:35.725Z,1003.4
2016-09-06T02:42:56.283Z,1003.4
2016-09-06T02:43:16.853Z,1003.4
2016-09-06T02:43:37.426Z,1003.5
2016-09-06T02:43:58.013Z,1003.5
2016-09-06T02:44:18.601Z,1003.4
2016-09-06T02:44:39.179Z,1003.5
2016-09-06T02:44:59.751Z,1003.5
2016-09-06T02:45:20.289Z,1003.5
2016-09-06T02:45:40.858Z,1003.5
2016-09-06T02:46:01.415Z,1003.4
2016-09-06T02:46:22.020Z,1003.5
2016-09-06T02:46:42.583Z,1003.5
2016-09-06T02:47:03.177Z,1003.5
2016-09-06T02:47:23.755Z,1003.5
2016-09-06T02:47:44.333Z,1003.5
2016-09-06T02:48:04.884Z,1003.5
2016-09-06T02:48:25.469Z,1003.5
2016-09-06T02:48:46.044Z,1003.5
2016-09-06T02:49:06.627Z,1003.5
2016-09-06T02:49:27.180Z,1003.5
2016-09-06T02:49:47.762Z,1003.5
2016-09-06T02:50:08.322Z,1003.5
2016-09-06T02:50:28.915Z,1003.5
2016-09-06T02:50:49.504Z,1003.5
2016-09-06T02:51:10.099Z,1003.5
2016-09-06T02:51:30.660Z,1003.5
2016-09-06T02:51:51.228Z,1003.5
2016-09-06T02:52:11.813Z,1003.5
2016-09-06T02:52:32.373Z,1003.6
2016-09-06T02:52:52.923Z,1003.5
2016-09-06T02:53:13.510Z,1003.5
2016-09-06T02:53:34.087Z,1003.5
2016-09-06T02:53:54.682Z,1003.5
2016-09-06T02:54:15.255Z,1003.5
2016-09-06T02:54:35.830Z,1003.5
2016-09-06T02:54:56.400Z,1003.5
2016-09-06T02:55:16.981Z,1003.5
2016-09-06T02:55:37.566Z,1003.5
2016-09-06T02:55:58.146Z,1003.6
2016-09-06T02:56:18.753Z,1003.5
2016-09-06T02:56:39.318Z,1003.5
2016-09-06T02:56:59.895Z,1003.5
2016-09-06T02:57:20.445Z,1003.5
2016-09-06T02:57:41.006Z,1003.6
2016-09-06T02:58:01.579Z,1003.6
2016-09-06T02:58:22.119Z,1003.6
2016-09-06T02:58:42.696Z,1003.6
2016-09-06T02:59:03.269Z,1003.6
2016-09-06T02:59:23.809Z,1003.6
2016-09-06T02:59:44.397Z,1003.6
2016-09-06T03:00:04.973Z,1003.6
2016-09-06T03:00:25.582Z,1003.6
2016-09-06T03:00:46.227Z,1003.6
2016-09-06T03:01:06.805Z,1003.6
2016-09-06T03:01:27.365Z,1003.6
2016-09-06T03:01:47.951Z,1003.6
2016-09-06T03:02:08.500Z,1003.6
2016-09-06T03:02:29.042Z,1003.6
2016-09-06T03:02:49.615Z,1003.6
2016-09-06T03:03:10.187Z,1003.6
2016-09-06T03:03:30.764Z,1003.6
2016-09-06T03:03:51.348Z,1003.7
2016-09-06T03:04:11.923Z,1003.6
2016-09-06T03:04:32.510Z,1003.6
2016-09-06T03:04:53.085Z,1003.7
2016-09-06T03:05:13.671Z,1003.7
2016-09-06T03:05:34.236Z,1003.7
2016-09-06T03:05:54.825Z,1003.7
2016-09-06T03:06:15.386Z,1003.7
2016-09-06T03:06:35.997Z,1003.7
2016-09-06T03:06:56.556Z,1003.7
2016-09-06T03:07:17.117Z,1003.7
2016-09-06T03:07:37.676Z,1003.7
2016-09-06T03:07:58.233Z,1003.7
2016-09-06T03:08:18.779Z,1003.7
2016-09-06T03:08:39.341Z,1003.7
2016-09-06T03:08:59.908Z,1003.7
2016-09-06T03:09:20.511Z,1003.7
2016-09-06T03:09:41.101Z,1003.8
2016-09-06T03:10:01.658Z,1003.7
2016-09-06T03:10:22.246Z,1003.7
2016-09-06T03:10:42.810Z,1003.7
2016-09-06T03:11:03.375Z,1003.7
2016-09-06T03:11:23.963Z,1003.7
2016-09-06T03:11:44.551Z,1003.7
2016-09-06T03:12:05.110Z,1003.7
2016-09-06T03:12:25.664Z,1003.7
2016-09-06T03:12:46.237Z,1003.7
2016-09-06T03:13:06.808Z,1003.7
2016-09-06T03:13:27.403Z,1003.8
2016-09-06T03:13:47.993Z,1003.8
2016-09-06T03:14:08.568Z,1003.7
2016-09-06T03:14:29.144Z,1003.7
2016-09-06T03:14:49.716Z,1003.8
2016-09-06T03:15:10.288Z,1003.7
2016-09-06T03:15:30.847Z,1003.8
2016-09-06T03:15:51.416Z,1003.7
2016-09-06T03:16:11.951Z,1003.8
2016-09-06T03:16:32.525Z,1003.7
2016-09-06T03:16:53.121Z,1003.7
2016-09-06T03:17:13.729Z,1003.7
2016-09-06T03:17:34.283Z,1003.7
2016-09-06T03:17:54.844Z,1003.7
2016-09-06T03:18:15.409Z,1003.7
2016-09-06T03:18:35.974Z,1003.7
2016-09-06T03:18:56.532Z,1003.7
2016-09-06T03:19:17.110Z,1003.7
2016-09-06T03:19:37.699Z,1003.8
2016-09-06T03:19:58.274Z,1003.7
2016-09-06T03:20:18.834Z,1003.7
2016-09-06T03:20:39.417Z,1003.7
2016-09-06T03:21:00.028Z,1003.7
2016-09-06T03:21:20.624Z,1003.7
2016-09-06T03:21:41.205Z,1003.7
2016-09-06T03:22:01.899Z,1003.8
2016-09-06T03:22:22.465Z,1003.7
2016-09-06T03:22:42.998Z,1003.7
2016-09-06T03:23:03.562Z,1003.7
2016-09-06T03:23:24.149Z,1003.7
2016-09-06T03:23:44.736Z,1003.7
2016-09-06T03:24:05.325Z,1003.8
2016-09-06T03:24:25.870Z,1003.7
2016-09-06T03:24:46.459Z,1003.7
2016-09-06T03:25:07.056Z,1003.7
2016-09-06T03:25:27.649Z,1003.7
2016-09-06T03:25:48.247Z,1003.7
2016-09-06T03:26:08.806Z,1003.8
2016-09-06T03:26:29.359Z,1003.7
2016-09-06T03:26:49.923Z,1003.8
2016-09-06T03:27:10.502Z,1003.7
2016-09-06T03:27:31.095Z,1003.8
2016-09-06T03:27:51.667Z,1003.8
2016-09-06T03:28:12.221Z,1003.7
2016-09-06T03:28:32.779Z,1003.7
2016-09-06T03:28:53.348Z,1003.8
2016-09-06T03:29:13.926Z,1003.8
2016-09-06T03:29:34.525Z,1003.8
2016-09-06T03:29:55.109Z,1003.8
2016-09-06T03:30:15.676Z,1003.8
2016-09-06T03:30:36.231Z,1003.8
2016-09-06T03:30:56.798Z,1003.8
2016-09-06T03:31:17.371Z,1003.8
2016-09-06T03:31:37.950Z,1003.8
2016-09-06T03:31:58.547Z,1003.8
2016-09-06T03:32:19.086Z,1003.8
2016-09-06T03:32:39.644Z,1003.8
2016-09-06T03:33:00.214Z,1003.8
2016-09-06T03:33:20.767Z,1003.8
2016-09-06T03:33:41.342Z,1003.8
2016-09-06T03:34:01.903Z,1003.8
2016-09-06T03:34:22.486Z,1003.8
2016-09-06T03:34:43.020Z,1003.8
2016-09-06T03:35:03.593Z,1003.8
2016-09-06T03:35:24.156Z,1003.8
2016-09-06T03:35:44.740Z,1003.8
2016-09-06T03:36:05.317Z,1003.8
2016-09-06T03:36:25.871Z,1003.8
2016-09-06T03:36:46.443Z,1003.9
2016-09-06T03:37:07.034Z,1003.8
2016-09-06T03:37:27.609Z,1003.8
2016-09-06T03:37:48.162Z,1003.9
2016-09-06T03:38:08.733Z,1003.8
2016-09-06T03:38:29.287Z,1003.8
2016-09-06T03:38:49.842Z,1003.9
2016-09-06T03:39:10.424Z,1003.9
2016-09-06T03:39:31.008Z,1003.8
2016-09-06T03:39:51.568Z,1003.9
2016-09-06T03:40:12.120Z,1003.9
2016-09-06T03:40:32.695Z,1003.9
2016-09-06T03:40:53.259Z,1003.9
2016-09-06T03:41:13.829Z,1003.9
2016-09-06T03:41:34.394Z,1003.9
2016-09-06T03:41:54.971Z,1003.9
2016-09-06T03:42:15.539Z,1003.8
2016-09-06T03:42:36.106Z,1003.9
2016-09-06T03:42:56.686Z,1003.9
2016-09-06T03:43:17.272Z,1003.8
2016-09-06T03:43:37.839Z,1003.9
2016-09-06T03:43:58.396Z,1003.9
2016-09-06T03:44:18.961Z,1003.9
2016-09-06T03:44:39.518Z,1003.9
2016-09-06T03:45:00.099Z,1003.9
2016-09-06T03:45:20.649Z,1003.9
2016-09-06T03:45:41.236Z,1003.9
2016-09-06T03:46:01.796Z,1003.9
2016-09-06T03:46:22.369Z,1003.9
2016-09-06T03:46:42.963Z,1003.9
2016-09-06T03:47:03.534Z,1004
2016-09-06T03:47:24.130Z,1003.9
2016-09-06T03:47:44.684Z,1003.9
2016-09-06T03:48:05.230Z,1003.9
2016-09-06T03:48:25.799Z,1003.9
2016-09-06T03:48:46.370Z,1003.9
2016-09-06T03:49:06.955Z,1003.9
2016-09-06T03:49:27.543Z,1004
2016-09-06T03:49:48.117Z,1003.9
2016-09-06T03:50:08.676Z,1003.9
2016-09-06T03:50:29.224Z,1004
2016-09-06T03:50:49.835Z,1004
2016-09-06T03:51:10.400Z,1004
2016-09-06T03:51:30.975Z,1003.9
2016-09-06T03:51:51.552Z,1003.9
2016-09-06T03:52:12.100Z,1003.9
2016-09-06T03:52:32.663Z,1003.9
2016-09-06T03:52:53.266Z,1004
2016-09-06T03:53:13.845Z,1004
2016-09-06T03:53:34.442Z,1003.9
2016-09-06T03:53:55.010Z,1003.9
2016-09-06T03:54:15.610Z,1004
2016-09-06T03:54:36.180Z,1003.9
2016-09-06T03:54:56.759Z,1003.9
2016-09-06T03:55:17.342Z,1003.9
2016-09-06T03:55:37.933Z,1003.9
2016-09-06T03:55:58.502Z,1003.9
2016-09-06T03:56:19.070Z,1003.9
2016-09-06T03:56:39.684Z,1003.9
2016-09-06T03:57:00.261Z,1003.9
2016-09-06T03:57:20.833Z,1003.9
2016-09-06T03:57:41.393Z,1003.9
2016-09-06T03:58:01.952Z,1004
2016-09-06T03:58:22.604Z,1004
2016-09-06T03:58:43.164Z,1004
2016-09-06T03:59:03.739Z,1004
2016-09-06T03:59:24.300Z,1004
2016-09-06T03:59:44.840Z,1004
2016-09-06T04:00:05.412Z,1004
2016-09-06T04:00:25.984Z,1004
2016-09-06T04:00:46.560Z,1004
2016-09-06T04:01:07.115Z,1004
2016-09-06T04:01:27.709Z,1004
2016-09-06T04:01:48.271Z,1004
2016-09-06T04:02:08.849Z,1004
2016-09-06T04:02:29.408Z,1004
2016-09-06T04:02:49.984Z,1004
2016-09-06T04:03:10.546Z,1004
2016-09-06T04:03:31.118Z,1004
2016-09-06T04:03:51.683Z,1004
2016-09-06T04:04:12.277Z,1004
2016-09-06T04:04:32.866Z,1004
2016-09-06T04:04:53.446Z,1004
2016-09-06T04:05:14.027Z,1004
2016-09-06T04:05:34.609Z,1004
2016-09-06T04:05:55.185Z,1004.1
2016-09-06T04:06:15.770Z,1004
2016-09-06T04:06:36.336Z,1004.1
2016-09-06T04:06:56.923Z,1004.1
2016-09-06T04:07:17.502Z,1004
2016-09-06T04:07:38.060Z,1004.1
2016-09-06T04:07:58.619Z,1004.1
2016-09-06T04:08:19.176Z,1004.1
2016-09-06T04:08:39.748Z,1004.1
2016-09-06T04:09:00.338Z,1004.1
2016-09-06T04:09:20.893Z,1004.1
2016-09-06T04:09:41.484Z,1004.1
2016-09-06T04:10:02.041Z,1004.1
2016-09-06T04:10:22.613Z,1004.1
2016-09-06T04:10:43.248Z,1004.1
2016-09-06T04:11:03.852Z,1004.1
2016-09-06T04:11:24.434Z,1004.1
2016-09-06T04:11:45.019Z,1004
2016-09-06T04:12:05.594Z,1004.1
2016-09-06T04:12:26.185Z,1004.1
2016-09-06T04:12:46.741Z,1004.1
2016-09-06T04:13:07.308Z,1004.1
2016-09-06T04:13:27.866Z,1004.1
2016-09-06T04:13:48.463Z,1004.1
2016-09-06T04:14:09.074Z,1004.1
2016-09-06T04:14:29.669Z,1004.1
2016-09-06T04:14:50.229Z,1004.1
2016-09-06T04:15:10.778Z,1004.1
2016-09-06T04:15:31.335Z,1004.1
2016-09-06T04:15:51.904Z,1004.2
2016-09-06T04:16:12.482Z,1004.1
2016-09-06T04:16:33.044Z,1004.1
2016-09-06T04:16:53.598Z,1004.2
2016-09-06T04:17:14.167Z,1004.1
2016-09-06T04:17:34.751Z,1004.1
2016-09-06T04:17:55.322Z,1004.2